sensor_id;sensor_type;location;lat;lon;timestamp;P1;durP1;ratioP1;P2;durP2;ratioP2
3997;SDS011;61314;53.444;9.902;2022-11-15T00:00:04;56.22;;;32.45;;
3997;SDS011;61314;53.444;9.902;2022-11-15T00:02:31;63.38;;;33.70;;
3997;SDS011;61314;53.444;9.902;2022-11-15T00:04:58;58.78;;;32.88;;
3997;SDS011;61314;53.444;9.902;2022-11-15T00:07:25;55.95;;;32.50;;
3997;SDS011;61314;53.444;9.902;2022-11-15T00:10:12;70.38;;;35.25;;
3997;SDS011;61314;53.444;9.902;2022-11-15T00:12:39;67.63;;;34.85;;
3997;SDS011;61314;53.444;9.902;2022-11-15T00:15:06;60.22;;;34.33;;
3997;SDS011;61314;53.444;9.902;2022-11-15T00:17:34;65.15;;;37.08;;
3997;SDS011;61314;53.444;9.902;2022-11-15T00:20:01;59.67;;;34.05;;
3997;SDS011;61314;53.444;9.902;2022-11-15T00:22:31;62.50;;;35.70;;
3997;SDS011;61314;53.444;9.902;2022-11-15T00:24:59;73.05;;;36.58;;
3997;SDS011;61314;53.444;9.902;2022-11-15T00:27:26;68.70;;;35.35;;
3997;SDS011;61314;53.444;9.902;2022-11-15T00:29:53;75.22;;;37.72;;
3997;SDS011;61314;53.444;9.902;2022-11-15T00:32:20;66.13;;;36.00;;
3997;SDS011;61314;53.444;9.902;2022-11-15T00:34:47;64.82;;;34.58;;
3997;SDS011;61314;53.444;9.902;2022-11-15T00:37:14;68.70;;;36.05;;
3997;SDS011;61314;53.444;9.902;2022-11-15T00:39:41;58.88;;;34.67;;
3997;SDS011;61314;53.444;9.902;2022-11-15T00:42:08;63.28;;;35.38;;
3997;SDS011;61314;53.444;9.902;2022-11-15T00:44:35;67.63;;;33.80;;
3997;SDS011;61314;53.444;9.902;2022-11-15T00:47:02;67.50;;;36.50;;
3997;SDS011;61314;53.444;9.902;2022-11-15T00:49:29;61.25;;;35.70;;
3997;SDS011;61314;53.444;9.902;2022-11-15T00:51:56;66.03;;;37.00;;
3997;SDS011;61314;53.444;9.902;2022-11-15T00:54:23;59.97;;;35.40;;
3997;SDS011;61314;53.444;9.902;2022-11-15T00:56:50;62.58;;;35.63;;
3997;SDS011;61314;53.444;9.902;2022-11-15T00:59:17;60.95;;;33.05;;
3997;SDS011;61314;53.444;9.902;2022-11-15T01:01:44;61.58;;;35.95;;
3997;SDS011;61314;53.444;9.902;2022-11-15T01:04:11;55.22;;;32.92;;
3997;SDS011;61314;53.444;9.902;2022-11-15T01:06:38;55.08;;;33.15;;
3997;SDS011;61314;53.444;9.902;2022-11-15T01:09:05;58.17;;;33.15;;
3997;SDS011;61314;53.444;9.902;2022-11-15T01:11:32;51.85;;;32.42;;
3997;SDS011;61314;53.444;9.902;2022-11-15T01:13:59;54.90;;;33.67;;
3997;SDS011;61314;53.444;9.902;2022-11-15T01:16:26;58.72;;;32.58;;
3997;SDS011;61314;53.444;9.902;2022-11-15T01:18:53;62.13;;;32.97;;
3997;SDS011;61314;53.444;9.902;2022-11-15T01:21:20;54.70;;;31.98;;
3997;SDS011;61314;53.444;9.902;2022-11-15T01:23:47;52.60;;;32.58;;
3997;SDS011;61314;53.444;9.902;2022-11-15T01:26:14;56.40;;;32.05;;
3997;SDS011;61314;53.444;9.902;2022-11-15T01:28:41;58.78;;;33.47;;
3997;SDS011;61314;53.444;9.902;2022-11-15T01:31:12;50.20;;;30.80;;
3997;SDS011;61314;53.444;9.902;2022-11-15T01:33:39;54.53;;;31.55;;
3997;SDS011;61314;53.444;9.902;2022-11-15T01:36:19;48.33;;;29.52;;
3997;SDS011;61314;53.444;9.902;2022-11-15T01:38:53;50.58;;;29.27;;
3997;SDS011;61314;53.444;9.902;2022-11-15T01:41:22;52.85;;;29.30;;
3997;SDS011;61314;53.444;9.902;2022-11-15T01:43:51;55.03;;;32.47;;
3997;SDS011;61314;53.444;9.902;2022-11-15T01:46:22;49.45;;;28.63;;
3997;SDS011;61314;53.444;9.902;2022-11-15T01:48:51;51.30;;;30.45;;
3997;SDS011;61314;53.444;9.902;2022-11-15T01:51:20;52.00;;;29.33;;
3997;SDS011;61314;53.444;9.902;2022-11-15T01:53:49;52.47;;;28.45;;
3997;SDS011;61314;53.444;9.902;2022-11-15T01:56:21;48.80;;;28.60;;
3997;SDS011;61314;53.444;9.902;2022-11-15T01:58:49;48.75;;;29.27;;
3997;SDS011;61314;53.444;9.902;2022-11-15T02:01:17;50.08;;;29.70;;
3997;SDS011;61314;53.444;9.902;2022-11-15T02:03:46;47.83;;;28.88;;
3997;SDS011;61314;53.444;9.902;2022-11-15T02:06:15;56.13;;;30.25;;
3997;SDS011;61314;53.444;9.902;2022-11-15T02:08:42;47.35;;;27.45;;
3997;SDS011;61314;53.444;9.902;2022-11-15T02:11:10;51.78;;;29.25;;
3997;SDS011;61314;53.444;9.902;2022-11-15T02:13:36;52.60;;;29.20;;
3997;SDS011;61314;53.444;9.902;2022-11-15T02:16:16;48.53;;;29.30;;
3997;SDS011;61314;53.444;9.902;2022-11-15T02:18:50;55.25;;;30.52;;
3997;SDS011;61314;53.444;9.902;2022-11-15T02:21:22;49.53;;;30.13;;
3997;SDS011;61314;53.444;9.902;2022-11-15T02:29:01;51.85;;;27.98;;
3997;SDS011;61314;53.444;9.902;2022-11-15T02:31:33;51.30;;;29.52;;
3997;SDS011;61314;53.444;9.902;2022-11-15T02:34:09;49.20;;;29.17;;
3997;SDS011;61314;53.444;9.902;2022-11-15T02:37:01;49.83;;;29.02;;
3997;SDS011;61314;53.444;9.902;2022-11-15T02:39:35;55.58;;;29.17;;
3997;SDS011;61314;53.444;9.902;2022-11-15T02:42:04;48.40;;;27.85;;
3997;SDS011;61314;53.444;9.902;2022-11-15T02:44:54;43.40;;;27.25;;
3997;SDS011;61314;53.444;9.902;2022-11-15T02:47:23;49.20;;;28.60;;
3997;SDS011;61314;53.444;9.902;2022-11-15T02:49:52;48.03;;;28.02;;
3997;SDS011;61314;53.444;9.902;2022-11-15T02:52:20;52.15;;;29.95;;
3997;SDS011;61314;53.444;9.902;2022-11-15T02:54:59;45.38;;;26.50;;
3997;SDS011;61314;53.444;9.902;2022-11-15T02:57:39;49.03;;;26.90;;
3997;SDS011;61314;53.444;9.902;2022-11-15T03:00:13;43.38;;;26.38;;
3997;SDS011;61314;53.444;9.902;2022-11-15T03:05:19;43.20;;;26.88;;
3997;SDS011;61314;53.444;9.902;2022-11-15T03:07:56;45.20;;;25.88;;
3997;SDS011;61314;53.444;9.902;2022-11-15T03:13:19;47.40;;;27.63;;
3997;SDS011;61314;53.444;9.902;2022-11-15T03:16:00;44.55;;;27.05;;
3997;SDS011;61314;53.444;9.902;2022-11-15T03:18:30;42.55;;;24.73;;
3997;SDS011;61314;53.444;9.902;2022-11-15T03:20:59;44.15;;;26.10;;
3997;SDS011;61314;53.444;9.902;2022-11-15T03:23:28;42.75;;;24.73;;
3997;SDS011;61314;53.444;9.902;2022-11-15T03:25:57;53.85;;;27.85;;
3997;SDS011;61314;53.444;9.902;2022-11-15T03:28:25;41.85;;;25.25;;
3997;SDS011;61314;53.444;9.902;2022-11-15T03:30:54;45.40;;;26.42;;
3997;SDS011;61314;53.444;9.902;2022-11-15T03:33:22;48.40;;;28.17;;
3997;SDS011;61314;53.444;9.902;2022-11-15T03:35:49;47.92;;;28.67;;
3997;SDS011;61314;53.444;9.902;2022-11-15T03:38:17;41.33;;;26.92;;
3997;SDS011;61314;53.444;9.902;2022-11-15T03:40:59;40.05;;;26.88;;
3997;SDS011;61314;53.444;9.902;2022-11-15T03:48:40;40.83;;;25.05;;
3997;SDS011;61314;53.444;9.902;2022-11-15T03:51:08;41.97;;;24.95;;
3997;SDS011;61314;53.444;9.902;2022-11-15T03:53:36;38.17;;;23.73;;
3997;SDS011;61314;53.444;9.902;2022-11-15T03:56:03;37.95;;;22.38;;
3997;SDS011;61314;53.444;9.902;2022-11-15T03:58:30;38.25;;;21.27;;
3997;SDS011;61314;53.444;9.902;2022-11-15T04:00:57;40.45;;;24.02;;
3997;SDS011;61314;53.444;9.902;2022-11-15T04:03:25;43.72;;;23.15;;
3997;SDS011;61314;53.444;9.902;2022-11-15T04:05:52;44.33;;;25.67;;
3997;SDS011;61314;53.444;9.902;2022-11-15T04:08:19;43.38;;;24.58;;
3997;SDS011;61314;53.444;9.902;2022-11-15T04:10:48;41.15;;;23.58;;
3997;SDS011;61314;53.444;9.902;2022-11-15T04:13:15;36.88;;;21.67;;
3997;SDS011;61314;53.444;9.902;2022-11-15T04:15:42;38.88;;;22.73;;
3997;SDS011;61314;53.444;9.902;2022-11-15T04:18:09;47.15;;;25.60;;
3997;SDS011;61314;53.444;9.902;2022-11-15T04:20:36;88.30;;;43.92;;
3997;SDS011;61314;53.444;9.902;2022-11-15T04:23:22;94.57;;;44.35;;
3997;SDS011;61314;53.444;9.902;2022-11-15T04:26:09;74.60;;;39.95;;
3997;SDS011;61314;53.444;9.902;2022-11-15T04:28:37;82.10;;;39.85;;
3997;SDS011;61314;53.444;9.902;2022-11-15T04:31:23;59.97;;;31.73;;
3997;SDS011;61314;53.444;9.902;2022-11-15T04:33:50;44.83;;;25.40;;
3997;SDS011;61314;53.444;9.902;2022-11-15T04:36:17;49.72;;;25.48;;
3997;SDS011;61314;53.444;9.902;2022-11-15T04:39:03;46.03;;;23.58;;
3997;SDS011;61314;53.444;9.902;2022-11-15T04:41:30;44.85;;;23.10;;
3997;SDS011;61314;53.444;9.902;2022-11-15T04:43:57;41.55;;;23.50;;
3997;SDS011;61314;53.444;9.902;2022-11-15T04:46:24;49.17;;;24.83;;
3997;SDS011;61314;53.444;9.902;2022-11-15T04:48:51;47.10;;;25.65;;
3997;SDS011;61314;53.444;9.902;2022-11-15T04:51:24;44.50;;;23.90;;
3997;SDS011;61314;53.444;9.902;2022-11-15T04:53:51;52.35;;;25.27;;
3997;SDS011;61314;53.444;9.902;2022-11-15T04:56:18;46.33;;;24.20;;
3997;SDS011;61314;53.444;9.902;2022-11-15T04:58:45;41.72;;;24.67;;
3997;SDS011;61314;53.444;9.902;2022-11-15T05:01:12;42.97;;;24.60;;
3997;SDS011;61314;53.444;9.902;2022-11-15T05:03:41;47.65;;;25.10;;
3997;SDS011;61314;53.444;9.902;2022-11-15T05:06:26;42.83;;;23.92;;
3997;SDS011;61314;53.444;9.902;2022-11-15T05:08:53;45.90;;;24.67;;
3997;SDS011;61314;53.444;9.902;2022-11-15T05:11:21;52.13;;;27.33;;
3997;SDS011;61314;53.444;9.902;2022-11-15T05:13:48;44.67;;;24.52;;
3997;SDS011;61314;53.444;9.902;2022-11-15T05:16:15;56.22;;;29.67;;
3997;SDS011;61314;53.444;9.902;2022-11-15T05:18:42;47.58;;;26.20;;
3997;SDS011;61314;53.444;9.902;2022-11-15T05:21:10;52.22;;;27.02;;
3997;SDS011;61314;53.444;9.902;2022-11-15T05:23:37;56.17;;;27.67;;
3997;SDS011;61314;53.444;9.902;2022-11-15T05:26:05;53.15;;;29.67;;
3997;SDS011;61314;53.444;9.902;2022-11-15T05:28:34;60.90;;;28.08;;
3997;SDS011;61314;53.444;9.902;2022-11-15T05:31:03;51.67;;;27.50;;
3997;SDS011;61314;53.444;9.902;2022-11-15T05:33:30;47.90;;;26.20;;
3997;SDS011;61314;53.444;9.902;2022-11-15T05:36:00;48.75;;;26.45;;
3997;SDS011;61314;53.444;9.902;2022-11-15T05:38:27;44.63;;;25.50;;
3997;SDS011;61314;53.444;9.902;2022-11-15T05:40:55;48.83;;;27.30;;
3997;SDS011;61314;53.444;9.902;2022-11-15T05:43:22;40.53;;;24.95;;
3997;SDS011;61314;53.444;9.902;2022-11-15T05:45:49;50.10;;;26.27;;
3997;SDS011;61314;53.444;9.902;2022-11-15T05:48:16;47.83;;;26.83;;
3997;SDS011;61314;53.444;9.902;2022-11-15T05:50:44;48.05;;;27.00;;
3997;SDS011;61314;53.444;9.902;2022-11-15T05:53:13;47.72;;;26.00;;
3997;SDS011;61314;53.444;9.902;2022-11-15T05:55:41;48.28;;;26.90;;
3997;SDS011;61314;53.444;9.902;2022-11-15T05:58:08;46.55;;;24.50;;
3997;SDS011;61314;53.444;9.902;2022-11-15T06:00:36;56.90;;;25.27;;
3997;SDS011;61314;53.444;9.902;2022-11-15T06:03:03;42.85;;;23.60;;
3997;SDS011;61314;53.444;9.902;2022-11-15T06:05:30;43.72;;;23.52;;
3997;SDS011;61314;53.444;9.902;2022-11-15T06:07:57;45.58;;;25.67;;
3997;SDS011;61314;53.444;9.902;2022-11-15T06:10:25;47.95;;;25.83;;
3997;SDS011;61314;53.444;9.902;2022-11-15T06:12:58;52.80;;;27.25;;
3997;SDS011;61314;53.444;9.902;2022-11-15T06:15:25;47.63;;;26.20;;
3997;SDS011;61314;53.444;9.902;2022-11-15T06:17:55;51.85;;;27.95;;
3997;SDS011;61314;53.444;9.902;2022-11-15T06:20:26;48.05;;;26.17;;
3997;SDS011;61314;53.444;9.902;2022-11-15T06:22:57;51.20;;;27.35;;
3997;SDS011;61314;53.444;9.902;2022-11-15T06:25:25;49.20;;;25.58;;
3997;SDS011;61314;53.444;9.902;2022-11-15T06:27:52;57.72;;;26.77;;
3997;SDS011;61314;53.444;9.902;2022-11-15T06:30:19;46.38;;;26.20;;
3997;SDS011;61314;53.444;9.902;2022-11-15T06:32:47;52.00;;;28.15;;
3997;SDS011;61314;53.444;9.902;2022-11-15T06:35:14;52.10;;;28.20;;
3997;SDS011;61314;53.444;9.902;2022-11-15T06:37:41;51.90;;;28.05;;
3997;SDS011;61314;53.444;9.902;2022-11-15T06:40:09;50.95;;;27.27;;
3997;SDS011;61314;53.444;9.902;2022-11-15T06:42:36;49.15;;;27.08;;
3997;SDS011;61314;53.444;9.902;2022-11-15T06:45:03;51.78;;;28.00;;
3997;SDS011;61314;53.444;9.902;2022-11-15T06:47:30;48.45;;;26.17;;
3997;SDS011;61314;53.444;9.902;2022-11-15T06:49:57;65.32;;;28.95;;
3997;SDS011;61314;53.444;9.902;2022-11-15T06:52:24;56.83;;;26.20;;
3997;SDS011;61314;53.444;9.902;2022-11-15T06:54:51;55.90;;;28.13;;
3997;SDS011;61314;53.444;9.902;2022-11-15T06:57:18;57.25;;;27.60;;
3997;SDS011;61314;53.444;9.902;2022-11-15T06:59:45;49.60;;;26.70;;
3997;SDS011;61314;53.444;9.902;2022-11-15T07:02:12;52.78;;;27.70;;
3997;SDS011;61314;53.444;9.902;2022-11-15T07:04:40;46.47;;;26.23;;
3997;SDS011;61314;53.444;9.902;2022-11-15T07:07:07;50.50;;;27.55;;
3997;SDS011;61314;53.444;9.902;2022-11-15T07:09:34;46.08;;;26.63;;
3997;SDS011;61314;53.444;9.902;2022-11-15T07:12:01;47.55;;;27.45;;
3997;SDS011;61314;53.444;9.902;2022-11-15T07:14:33;45.90;;;26.73;;
3997;SDS011;61314;53.444;9.902;2022-11-15T07:17:02;57.60;;;31.00;;
3997;SDS011;61314;53.444;9.902;2022-11-15T07:19:29;51.28;;;27.35;;
3997;SDS011;61314;53.444;9.902;2022-11-15T07:21:56;46.17;;;25.35;;
3997;SDS011;61314;53.444;9.902;2022-11-15T07:24:23;45.72;;;28.75;;
3997;SDS011;61314;53.444;9.902;2022-11-15T07:26:52;48.03;;;25.98;;
3997;SDS011;61314;53.444;9.902;2022-11-15T07:29:19;51.05;;;26.48;;
3997;SDS011;61314;53.444;9.902;2022-11-15T07:31:46;43.95;;;25.42;;
3997;SDS011;61314;53.444;9.902;2022-11-15T07:34:13;47.22;;;26.30;;
3997;SDS011;61314;53.444;9.902;2022-11-15T07:36:40;47.63;;;25.95;;
3997;SDS011;61314;53.444;9.902;2022-11-15T07:39:07;48.35;;;27.33;;
3997;SDS011;61314;53.444;9.902;2022-11-15T07:41:34;46.03;;;25.10;;
3997;SDS011;61314;53.444;9.902;2022-11-15T07:44:01;51.13;;;28.67;;
3997;SDS011;61314;53.444;9.902;2022-11-15T07:46:28;51.15;;;27.05;;
3997;SDS011;61314;53.444;9.902;2022-11-15T07:48:55;46.08;;;27.77;;
3997;SDS011;61314;53.444;9.902;2022-11-15T07:51:22;41.38;;;25.42;;
3997;SDS011;61314;53.444;9.902;2022-11-15T07:53:49;48.67;;;26.42;;
3997;SDS011;61314;53.444;9.902;2022-11-15T07:56:16;50.92;;;26.95;;
3997;SDS011;61314;53.444;9.902;2022-11-15T07:58:45;43.88;;;26.70;;
3997;SDS011;61314;53.444;9.902;2022-11-15T08:01:12;50.75;;;27.95;;
3997;SDS011;61314;53.444;9.902;2022-11-15T08:03:40;55.08;;;28.00;;
3997;SDS011;61314;53.444;9.902;2022-11-15T08:06:07;54.00;;;27.98;;
3997;SDS011;61314;53.444;9.902;2022-11-15T08:08:34;46.05;;;25.52;;
3997;SDS011;61314;53.444;9.902;2022-11-15T08:11:01;44.33;;;24.60;;
3997;SDS011;61314;53.444;9.902;2022-11-15T08:13:28;49.38;;;28.40;;
3997;SDS011;61314;53.444;9.902;2022-11-15T08:16:01;39.78;;;23.63;;
3997;SDS011;61314;53.444;9.902;2022-11-15T08:18:31;56.05;;;26.15;;
3997;SDS011;61314;53.444;9.902;2022-11-15T08:20:58;44.53;;;25.17;;
3997;SDS011;61314;53.444;9.902;2022-11-15T08:23:26;47.53;;;26.15;;
3997;SDS011;61314;53.444;9.902;2022-11-15T08:25:58;46.38;;;25.80;;
3997;SDS011;61314;53.444;9.902;2022-11-15T08:28:25;43.92;;;26.73;;
3997;SDS011;61314;53.444;9.902;2022-11-15T08:30:52;40.95;;;24.60;;
3997;SDS011;61314;53.444;9.902;2022-11-15T08:33:19;46.05;;;25.42;;
3997;SDS011;61314;53.444;9.902;2022-11-15T08:35:47;45.92;;;25.63;;
3997;SDS011;61314;53.444;9.902;2022-11-15T08:38:14;46.33;;;25.98;;
3997;SDS011;61314;53.444;9.902;2022-11-15T08:40:41;51.08;;;26.52;;
3997;SDS011;61314;53.444;9.902;2022-11-15T08:43:08;44.95;;;24.52;;
3997;SDS011;61314;53.444;9.902;2022-11-15T08:45:35;43.85;;;25.55;;
3997;SDS011;61314;53.444;9.902;2022-11-15T08:48:02;51.25;;;25.25;;
3997;SDS011;61314;53.444;9.902;2022-11-15T08:50:29;42.90;;;25.17;;
3997;SDS011;61314;53.444;9.902;2022-11-15T08:52:57;48.08;;;27.88;;
3997;SDS011;61314;53.444;9.902;2022-11-15T08:55:24;43.78;;;26.55;;
3997;SDS011;61314;53.444;9.902;2022-11-15T08:57:50;44.83;;;25.45;;
3997;SDS011;61314;53.444;9.902;2022-11-15T09:00:18;43.42;;;25.13;;
3997;SDS011;61314;53.444;9.902;2022-11-15T09:02:46;45.17;;;25.50;;
3997;SDS011;61314;53.444;9.902;2022-11-15T09:05:13;40.50;;;26.25;;
3997;SDS011;61314;53.444;9.902;2022-11-15T09:07:41;44.75;;;25.23;;
3997;SDS011;61314;53.444;9.902;2022-11-15T09:10:09;44.47;;;25.45;;
3997;SDS011;61314;53.444;9.902;2022-11-15T09:12:36;42.90;;;25.95;;
3997;SDS011;61314;53.444;9.902;2022-11-15T09:15:04;44.83;;;25.27;;
3997;SDS011;61314;53.444;9.902;2022-11-15T09:17:31;45.42;;;24.33;;
3997;SDS011;61314;53.444;9.902;2022-11-15T09:19:58;54.30;;;26.90;;
3997;SDS011;61314;53.444;9.902;2022-11-15T09:22:25;49.97;;;26.50;;
3997;SDS011;61314;53.444;9.902;2022-11-15T09:24:52;46.10;;;26.25;;
3997;SDS011;61314;53.444;9.902;2022-11-15T09:27:19;38.78;;;25.48;;
3997;SDS011;61314;53.444;9.902;2022-11-15T09:29:46;45.72;;;26.63;;
3997;SDS011;61314;53.444;9.902;2022-11-15T09:32:13;46.97;;;27.05;;
3997;SDS011;61314;53.444;9.902;2022-11-15T09:34:40;44.38;;;26.77;;
3997;SDS011;61314;53.444;9.902;2022-11-15T09:37:07;44.83;;;25.63;;
3997;SDS011;61314;53.444;9.902;2022-11-15T09:39:34;38.58;;;23.88;;
3997;SDS011;61314;53.444;9.902;2022-11-15T09:44:51;37.40;;;24.85;;
3997;SDS011;61314;53.444;9.902;2022-11-15T09:49:51;49.75;;;26.73;;
3997;SDS011;61314;53.444;9.902;2022-11-15T09:52:23;42.20;;;26.08;;
3997;SDS011;61314;53.444;9.902;2022-11-15T09:54:51;47.60;;;25.08;;
3997;SDS011;61314;53.444;9.902;2022-11-15T09:57:30;42.90;;;26.50;;
3997;SDS011;61314;53.444;9.902;2022-11-15T10:00:32;44.83;;;25.20;;
3997;SDS011;61314;53.444;9.902;2022-11-15T10:03:26;40.05;;;23.95;;
3997;SDS011;61314;53.444;9.902;2022-11-15T10:05:55;42.55;;;26.65;;
3997;SDS011;61314;53.444;9.902;2022-11-15T10:10:57;40.05;;;25.70;;
3997;SDS011;61314;53.444;9.902;2022-11-15T10:13:45;40.20;;;24.48;;
3997;SDS011;61314;53.444;9.902;2022-11-15T10:21:32;47.20;;;28.00;;
3997;SDS011;61314;53.444;9.902;2022-11-15T10:24:06;37.95;;;24.17;;
3997;SDS011;61314;53.444;9.902;2022-11-15T10:26:36;41.90;;;25.17;;
3997;SDS011;61314;53.444;9.902;2022-11-15T10:29:03;41.15;;;24.65;;
3997;SDS011;61314;53.444;9.902;2022-11-15T10:31:30;41.47;;;25.00;;
3997;SDS011;61314;53.444;9.902;2022-11-15T10:34:10;39.53;;;24.80;;
3997;SDS011;61314;53.444;9.902;2022-11-15T10:36:39;35.53;;;22.52;;
3997;SDS011;61314;53.444;9.902;2022-11-15T10:39:15;39.70;;;25.23;;
3997;SDS011;61314;53.444;9.902;2022-11-15T10:41:42;39.03;;;24.58;;
3997;SDS011;61314;53.444;9.902;2022-11-15T10:44:11;40.03;;;23.70;;
3997;SDS011;61314;53.444;9.902;2022-11-15T10:46:39;33.85;;;23.20;;
3997;SDS011;61314;53.444;9.902;2022-11-15T10:49:15;35.13;;;24.30;;
3997;SDS011;61314;53.444;9.902;2022-11-15T10:52:18;32.28;;;22.02;;
3997;SDS011;61314;53.444;9.902;2022-11-15T10:54:36;36.15;;;23.23;;
3997;SDS011;61314;53.444;9.902;2022-11-15T10:57:06;36.88;;;23.02;;
3997;SDS011;61314;53.444;9.902;2022-11-15T10:59:35;34.88;;;22.23;;
3997;SDS011;61314;53.444;9.902;2022-11-15T11:04:51;38.15;;;23.05;;
3997;SDS011;61314;53.444;9.902;2022-11-15T11:07:29;34.28;;;21.38;;
3997;SDS011;61314;53.444;9.902;2022-11-15T11:10:02;33.88;;;22.55;;
3997;SDS011;61314;53.444;9.902;2022-11-15T11:12:48;35.95;;;21.00;;
3997;SDS011;61314;53.444;9.902;2022-11-15T11:15:15;31.70;;;19.92;;
3997;SDS011;61314;53.444;9.902;2022-11-15T11:17:50;33.28;;;21.90;;
3997;SDS011;61314;53.444;9.902;2022-11-15T11:20:35;33.83;;;23.15;;
3997;SDS011;61314;53.444;9.902;2022-11-15T11:23:16;29.70;;;20.05;;
3997;SDS011;61314;53.444;9.902;2022-11-15T11:25:51;30.10;;;19.77;;
3997;SDS011;61314;53.444;9.902;2022-11-15T11:31:07;28.95;;;19.30;;
3997;SDS011;61314;53.444;9.902;2022-11-15T11:36:27;25.15;;;19.38;;
3997;SDS011;61314;53.444;9.902;2022-11-15T11:41:50;34.55;;;20.60;;
3997;SDS011;61314;53.444;9.902;2022-11-15T11:44:32;33.65;;;20.77;;
3997;SDS011;61314;53.444;9.902;2022-11-15T11:47:01;34.90;;;20.60;;
3997;SDS011;61314;53.444;9.902;2022-11-15T11:49:31;32.40;;;21.20;;
3997;SDS011;61314;53.444;9.902;2022-11-15T11:54:41;32.28;;;19.95;;
3997;SDS011;61314;53.444;9.902;2022-11-15T11:57:15;24.00;;;18.27;;
3997;SDS011;61314;53.444;9.902;2022-11-15T11:59:46;26.13;;;17.90;;
3997;SDS011;61314;53.444;9.902;2022-11-15T12:02:16;27.42;;;18.25;;
3997;SDS011;61314;53.444;9.902;2022-11-15T12:04:48;25.38;;;18.05;;
3997;SDS011;61314;53.444;9.902;2022-11-15T12:07:20;27.15;;;17.08;;
3997;SDS011;61314;53.444;9.902;2022-11-15T12:12:34;25.80;;;16.38;;
3997;SDS011;61314;53.444;9.902;2022-11-15T12:15:04;26.48;;;16.08;;
3997;SDS011;61314;53.444;9.902;2022-11-15T12:17:37;21.83;;;16.48;;
3997;SDS011;61314;53.444;9.902;2022-11-15T12:20:15;22.38;;;16.80;;
3997;SDS011;61314;53.444;9.902;2022-11-15T12:22:43;22.90;;;16.45;;
3997;SDS011;61314;53.444;9.902;2022-11-15T12:25:16;23.58;;;16.48;;
3997;SDS011;61314;53.444;9.902;2022-11-15T12:27:56;23.20;;;16.33;;
3997;SDS011;61314;53.444;9.902;2022-11-15T12:30:24;23.15;;;16.48;;
3997;SDS011;61314;53.444;9.902;2022-11-15T12:35:35;19.90;;;16.15;;
3997;SDS011;61314;53.444;9.902;2022-11-15T12:38:03;24.38;;;15.65;;
3997;SDS011;61314;53.444;9.902;2022-11-15T12:40:31;22.33;;;16.35;;
3997;SDS011;61314;53.444;9.902;2022-11-15T12:43:00;16.88;;;14.05;;
3997;SDS011;61314;53.444;9.902;2022-11-15T12:45:35;18.67;;;14.65;;
3997;SDS011;61314;53.444;9.902;2022-11-15T12:53:25;22.45;;;15.32;;
3997;SDS011;61314;53.444;9.902;2022-11-15T13:11:53;37.13;;;19.93;;
3997;SDS011;61314;53.444;9.902;2022-11-15T13:17:16;23.55;;;15.35;;
3997;SDS011;61314;53.444;9.902;2022-11-15T13:19:44;22.90;;;14.67;;
3997;SDS011;61314;53.444;9.902;2022-11-15T13:22:12;20.38;;;14.45;;
3997;SDS011;61314;53.444;9.902;2022-11-15T13:24:58;24.40;;;15.40;;
3997;SDS011;61314;53.444;9.902;2022-11-15T13:27:25;22.95;;;16.08;;
3997;SDS011;61314;53.444;9.902;2022-11-15T13:29:52;27.83;;;15.48;;
3997;SDS011;61314;53.444;9.902;2022-11-15T13:32:20;23.05;;;16.40;;
3997;SDS011;61314;53.444;9.902;2022-11-15T13:34:48;20.55;;;15.68;;
3997;SDS011;61314;53.444;9.902;2022-11-15T13:39:48;23.42;;;16.38;;
3997;SDS011;61314;53.444;9.902;2022-11-15T13:42:20;22.17;;;15.85;;
3997;SDS011;61314;53.444;9.902;2022-11-15T13:44:57;25.20;;;15.02;;
3997;SDS011;61314;53.444;9.902;2022-11-15T13:47:25;26.07;;;15.43;;
3997;SDS011;61314;53.444;9.902;2022-11-15T13:49:53;21.33;;;14.65;;
3997;SDS011;61314;53.444;9.902;2022-11-15T13:52:24;23.02;;;14.70;;
3997;SDS011;61314;53.444;9.902;2022-11-15T13:55:00;22.57;;;15.10;;
3997;SDS011;61314;53.444;9.902;2022-11-15T13:57:40;18.53;;;15.70;;
3997;SDS011;61314;53.444;9.902;2022-11-15T14:00:32;19.87;;;15.13;;
3997;SDS011;61314;53.444;9.902;2022-11-15T14:02:56;18.47;;;15.50;;
3997;SDS011;61314;53.444;9.902;2022-11-15T14:05:24;25.15;;;15.57;;
3997;SDS011;61314;53.444;9.902;2022-11-15T14:07:55;23.35;;;15.95;;
3997;SDS011;61314;53.444;9.902;2022-11-15T14:12:57;23.07;;;15.57;;
3997;SDS011;61314;53.444;9.902;2022-11-15T14:15:29;19.75;;;15.50;;
3997;SDS011;61314;53.444;9.902;2022-11-15T14:17:56;23.23;;;16.40;;
3997;SDS011;61314;53.444;9.902;2022-11-15T14:22:59;16.27;;;14.00;;
3997;SDS011;61314;53.444;9.902;2022-11-15T14:25:27;26.33;;;14.63;;
3997;SDS011;61314;53.444;9.902;2022-11-15T14:30:40;21.43;;;13.87;;
3997;SDS011;61314;53.444;9.902;2022-11-15T14:33:18;18.93;;;13.63;;
3997;SDS011;61314;53.444;9.902;2022-11-15T14:35:46;18.63;;;14.10;;
3997;SDS011;61314;53.444;9.902;2022-11-15T14:38:13;18.93;;;12.60;;
3997;SDS011;61314;53.444;9.902;2022-11-15T14:40:40;21.98;;;13.30;;
3997;SDS011;61314;53.444;9.902;2022-11-15T14:43:08;17.67;;;12.73;;
3997;SDS011;61314;53.444;9.902;2022-11-15T14:45:36;25.53;;;13.97;;
3997;SDS011;61314;53.444;9.902;2022-11-15T14:48:04;18.42;;;13.50;;
3997;SDS011;61314;53.444;9.902;2022-11-15T14:50:31;15.33;;;12.70;;
3997;SDS011;61314;53.444;9.902;2022-11-15T14:52:59;18.53;;;12.53;;
3997;SDS011;61314;53.444;9.902;2022-11-15T14:55:27;13.73;;;11.95;;
3997;SDS011;61314;53.444;9.902;2022-11-15T14:57:55;15.02;;;11.82;;
3997;SDS011;61314;53.444;9.902;2022-11-15T15:00:22;14.18;;;10.73;;
3997;SDS011;61314;53.444;9.902;2022-11-15T15:02:50;13.67;;;11.17;;
3997;SDS011;61314;53.444;9.902;2022-11-15T15:05:19;11.68;;;10.45;;
3997;SDS011;61314;53.444;9.902;2022-11-15T15:07:46;17.25;;;11.45;;
3997;SDS011;61314;53.444;9.902;2022-11-15T15:10:14;18.43;;;11.87;;
3997;SDS011;61314;53.444;9.902;2022-11-15T15:13:02;12.57;;;10.10;;
3997;SDS011;61314;53.444;9.902;2022-11-15T15:15:33;15.50;;;11.77;;
3997;SDS011;61314;53.444;9.902;2022-11-15T15:18:01;14.00;;;11.50;;
3997;SDS011;61314;53.444;9.902;2022-11-15T15:20:28;10.27;;;9.23;;
3997;SDS011;61314;53.444;9.902;2022-11-15T15:22:55;15.73;;;11.30;;
3997;SDS011;61314;53.444;9.902;2022-11-15T15:25:26;14.00;;;11.10;;
3997;SDS011;61314;53.444;9.902;2022-11-15T15:27:54;12.05;;;9.90;;
3997;SDS011;61314;53.444;9.902;2022-11-15T15:30:22;12.45;;;10.80;;
3997;SDS011;61314;53.444;9.902;2022-11-15T15:32:50;12.30;;;10.33;;
3997;SDS011;61314;53.444;9.902;2022-11-15T15:35:17;15.20;;;11.32;;
3997;SDS011;61314;53.444;9.902;2022-11-15T15:37:45;14.15;;;10.20;;
3997;SDS011;61314;53.444;9.902;2022-11-15T15:40:17;12.40;;;11.03;;
3997;SDS011;61314;53.444;9.902;2022-11-15T15:42:44;14.30;;;10.40;;
3997;SDS011;61314;53.444;9.902;2022-11-15T15:45:13;16.48;;;10.77;;
3997;SDS011;61314;53.444;9.902;2022-11-15T15:47:41;13.70;;;11.10;;
3997;SDS011;61314;53.444;9.902;2022-11-15T15:50:31;15.77;;;10.50;;
3997;SDS011;61314;53.444;9.902;2022-11-15T15:52:56;15.00;;;11.05;;
3997;SDS011;61314;53.444;9.902;2022-11-15T15:55:24;19.08;;;13.20;;
3997;SDS011;61314;53.444;9.902;2022-11-15T15:57:51;17.52;;;13.32;;
3997;SDS011;61314;53.444;9.902;2022-11-15T16:00:18;23.65;;;14.73;;
3997;SDS011;61314;53.444;9.902;2022-11-15T16:02:46;23.00;;;15.27;;
3997;SDS011;61314;53.444;9.902;2022-11-15T16:05:13;17.77;;;12.82;;
3997;SDS011;61314;53.444;9.902;2022-11-15T16:07:40;19.35;;;13.60;;
3997;SDS011;61314;53.444;9.902;2022-11-15T16:12:45;18.13;;;12.48;;
3997;SDS011;61314;53.444;9.902;2022-11-15T16:15:13;14.45;;;11.65;;